createdAt,value
2018-10-05T00:00:46.524Z,11.60
2018-10-05T00:05:49.565Z,11.40
2018-10-05T00:10:52.567Z,11.30
2018-10-05T00:15:55.575Z,11.10
2018-10-05T00:20:58.655Z,11.00
2018-10-05T00:26:01.686Z,10.90
2018-10-05T00:31:04.724Z,10.80
2018-10-05T00:36:07.768Z,10.70
2018-10-05T00:41:10.809Z,10.60
2018-10-05T00:46:13.862Z,10.60
2018-10-05T00:51:16.907Z,10.50
2018-10-05T00:56:20.016Z,10.50
2018-10-05T01:01:23.020Z,10.60
2018-10-05T01:06:26.080Z,10.60
2018-10-05T01:11:29.234Z,10.70
2018-10-05T01:16:32.258Z,10.70
2018-10-05T01:21:35.270Z,10.80
2018-10-05T01:26:38.332Z,10.90
2018-10-05T01:31:41.359Z,11.00
2018-10-05T01:36:44.406Z,11.00
2018-10-05T01:41:47.464Z,11.10
2018-10-05T01:46:50.487Z,11.20
2018-10-05T01:51:53.581Z,11.20
2018-10-05T01:56:56.616Z,11.20
2018-10-05T02:01:59.687Z,11.20
2018-10-05T02:07:02.697Z,11.20
2018-10-05T02:12:05.966Z,11.20
2018-10-05T02:17:09.039Z,11.20
2018-10-05T02:22:12.122Z,11.30
2018-10-05T02:27:20.971Z,11.30
2018-10-05T02:32:24.020Z,11.30
2018-10-05T02:37:27.070Z,11.30
2018-10-05T02:42:30.094Z,11.30
2018-10-05T02:47:33.105Z,11.40
2018-10-05T02:52:36.187Z,11.30
2018-10-05T02:57:39.204Z,11.40
2018-10-05T03:02:42.275Z,11.40
2018-10-05T03:07:45.291Z,11.40
2018-10-05T03:12:48.388Z,11.50
2018-10-05T03:17:51.518Z,11.50
2018-10-05T03:22:54.578Z,11.50
2018-10-05T03:27:57.631Z,11.50
2018-10-05T03:33:00.652Z,11.50
2018-10-05T03:38:03.715Z,11.50
2018-10-05T03:43:06.930Z,11.50
2018-10-05T03:48:09.956Z,11.50
2018-10-05T03:53:12.984Z,11.50
2018-10-05T03:58:16.250Z,11.50
2018-10-05T04:03:19.248Z,11.60
2018-10-05T04:08:22.328Z,11.50
2018-10-05T04:13:25.420Z,11.60
2018-10-05T04:18:28.476Z,11.60
2018-10-05T04:23:31.515Z,11.50
2018-10-05T04:28:34.543Z,11.50
2018-10-05T04:33:37.611Z,11.60
2018-10-05T04:38:40.703Z,11.60
2018-10-05T04:43:43.741Z,11.60
2018-10-05T04:48:46.772Z,11.60
2018-10-05T04:53:49.882Z,11.60
2018-10-05T04:58:53.060Z,11.60
2018-10-05T05:03:56.159Z,11.60
2018-10-05T05:08:59.220Z,11.60
2018-10-05T05:14:02.264Z,11.60
2018-10-05T05:19:06.013Z,11.60
2018-10-05T05:24:09.069Z,11.60
2018-10-05T05:29:12.127Z,11.60
2018-10-05T05:34:15.173Z,11.60
2018-10-05T05:39:18.256Z,11.60
2018-10-05T05:44:21.283Z,11.60
2018-10-05T05:49:24.428Z,11.70
2018-10-05T05:54:27.567Z,11.70
2018-10-05T05:59:30.629Z,11.80
2018-10-05T06:04:33.703Z,11.80
2018-10-05T06:09:36.763Z,11.90
2018-10-05T06:14:39.818Z,12.00
2018-10-05T06:19:42.856Z,12.10
2018-10-05T06:24:45.920Z,12.20
2018-10-05T06:29:49.313Z,12.30
2018-10-05T06:34:52.444Z,12.40
2018-10-05T06:39:55.614Z,12.50
2018-10-05T06:44:58.860Z,12.60
2018-10-05T06:50:01.908Z,12.60
2018-10-05T06:55:05.076Z,12.60
2018-10-05T07:00:08.122Z,12.70
2018-10-05T07:05:11.153Z,13.20
2018-10-05T07:10:14.334Z,14.80
2018-10-05T07:15:17.366Z,16.50
2018-10-05T07:20:20.438Z,18.40
2018-10-05T07:25:23.529Z,19.50
2018-10-05T07:30:26.648Z,20.40
2018-10-05T07:35:29.730Z,21.20
2018-10-05T07:40:32.767Z,21.80
2018-10-05T07:45:35.801Z,22.30
2018-10-05T07:50:38.884Z,22.30
2018-10-05T07:55:41.968Z,22.10
2018-10-05T08:00:45.172Z,21.70
2018-10-05T08:05:48.783Z,21.60
2018-10-05T08:10:51.872Z,21.50
2018-10-05T08:15:54.927Z,21.60
2018-10-05T08:20:58.022Z,21.80
2018-10-05T08:26:01.164Z,21.70
2018-10-05T08:31:04.225Z,21.70
2018-10-05T08:36:07.562Z,22.50
2018-10-05T08:41:10.580Z,23.10
2018-10-05T08:46:13.599Z,22.00
2018-10-05T08:51:16.677Z,20.50
2018-10-05T08:56:19.708Z,19.60
2018-10-05T09:01:22.913Z,18.80
2018-10-05T09:06:25.980Z,18.60
2018-10-05T09:11:29.311Z,18.20
2018-10-05T09:16:32.392Z,17.90
2018-10-05T09:21:35.447Z,17.90
2018-10-05T09:26:38.496Z,18.00
2018-10-05T09:31:41.575Z,18.10
2018-10-05T09:36:44.651Z,18.20
2018-10-05T09:41:47.720Z,18.30
2018-10-05T09:46:50.747Z,18.40
2018-10-05T09:51:53.809Z,18.40
2018-10-05T09:56:56.827Z,18.50
2018-10-05T10:02:05.341Z,18.50
2018-10-05T10:07:08.401Z,18.50
2018-10-05T10:12:11.472Z,18.50
2018-10-05T10:17:14.533Z,18.60
2018-10-05T10:22:17.596Z,18.60
2018-10-05T10:27:20.694Z,18.50
2018-10-05T10:32:23.728Z,18.50
2018-10-05T10:37:26.783Z,18.50
2018-10-05T10:42:29.880Z,18.50
2018-10-05T10:47:32.949Z,18.50
2018-10-05T10:52:36.024Z,18.60
2018-10-05T10:57:39.082Z,18.60
2018-10-05T11:02:42.174Z,18.70
2018-10-05T11:07:45.283Z,18.70
2018-10-05T11:12:48.439Z,18.70
2018-10-05T11:17:51.468Z,18.60
2018-10-05T11:22:54.544Z,18.60
2018-10-05T11:27:57.666Z,18.70
2018-10-05T11:33:00.724Z,18.80
2018-10-05T11:38:03.868Z,18.70
2018-10-05T11:43:06.949Z,18.80
2018-10-05T11:48:10.040Z,18.80
2018-10-05T11:53:13.152Z,18.90
2018-10-05T11:58:16.247Z,19.00
2018-10-05T12:03:19.296Z,19.00
2018-10-05T12:08:22.402Z,19.10
2018-10-05T12:13:25.566Z,19.10
2018-10-05T12:18:28.603Z,19.10
2018-10-05T12:23:31.688Z,19.10
2018-10-05T12:28:34.757Z,19.20
2018-10-05T12:33:37.794Z,19.30
2018-10-05T12:38:40.864Z,19.30
2018-10-05T12:43:43.919Z,19.20
2018-10-05T12:48:46.981Z,19.30
2018-10-05T12:53:50.020Z,19.30
2018-10-05T12:58:53.119Z,19.30
2018-10-05T13:03:56.145Z,19.30
2018-10-05T13:08:59.207Z,19.30
2018-10-05T13:14:02.259Z,19.40
2018-10-05T13:19:05.321Z,19.40
2018-10-05T13:24:08.351Z,19.50
2018-10-05T13:29:11.447Z,19.50
2018-10-05T13:34:14.472Z,19.60
2018-10-05T13:39:17.568Z,19.60
2018-10-05T13:44:20.684Z,19.80
2018-10-05T13:49:23.746Z,20.00
2018-10-05T13:54:27.500Z,20.20
2018-10-05T13:59:30.563Z,20.40
2018-10-05T14:04:33.727Z,20.40
2018-10-05T14:09:36.802Z,20.20
2018-10-05T14:14:39.843Z,20.00
2018-10-05T14:19:42.986Z,19.80
2018-10-05T14:24:46.082Z,19.60
2018-10-05T14:29:49.164Z,19.50
2018-10-05T14:34:52.221Z,19.40
2018-10-05T14:39:55.312Z,19.30
2018-10-05T14:44:58.437Z,19.30
2018-10-05T14:50:01.608Z,19.20
2018-10-05T14:55:04.647Z,19.00
2018-10-05T15:00:07.703Z,18.90
2018-10-05T15:05:10.795Z,18.80
2018-10-05T15:10:13.855Z,18.80
2018-10-05T15:15:16.898Z,18.70
2018-10-05T15:20:19.928Z,18.60
2018-10-05T15:25:23.020Z,18.60
2018-10-05T15:30:26.132Z,18.40
2018-10-05T15:35:29.477Z,18.30
2018-10-05T15:40:32.558Z,18.10
2018-10-05T15:45:35.591Z,18.00
2018-10-05T15:50:38.619Z,17.90
2018-10-05T15:55:41.672Z,17.80
2018-10-05T16:00:44.743Z,17.70
2018-10-05T16:05:47.866Z,17.50
2018-10-05T16:10:50.877Z,17.40
2018-10-05T16:15:53.948Z,17.20
2018-10-05T16:20:57.012Z,16.90
2018-10-05T16:26:00.086Z,16.70
2018-10-05T16:31:03.241Z,16.50
2018-10-05T16:36:06.686Z,16.20
2018-10-05T16:41:09.721Z,15.90
2018-10-05T16:46:12.774Z,15.70
2018-10-05T16:51:15.796Z,15.40
2018-10-05T16:56:18.879Z,15.20
2018-10-05T17:01:21.942Z,15.00
2018-10-05T17:06:25.049Z,14.80
2018-10-05T17:11:28.117Z,14.60
2018-10-05T17:16:31.256Z,14.50
2018-10-05T17:21:34.741Z,14.30
2018-10-05T17:26:37.843Z,14.10
2018-10-05T17:31:40.904Z,13.90
2018-10-05T17:36:43.961Z,13.80
2018-10-05T17:41:47.092Z,13.60
2018-10-05T17:46:50.169Z,13.40
2018-10-05T17:51:53.480Z,13.20
2018-10-05T17:56:56.954Z,13.10
2018-10-05T18:02:00.126Z,13.00
2018-10-05T18:07:03.253Z,13.00
2018-10-05T18:12:06.481Z,12.90
2018-10-05T18:17:09.560Z,12.80
2018-10-05T18:22:12.697Z,12.80
2018-10-05T18:27:15.827Z,12.70
2018-10-05T18:32:18.864Z,12.60
2018-10-05T18:37:22.363Z,12.50
2018-10-05T18:42:25.464Z,12.40
2018-10-05T18:47:28.611Z,12.30
2018-10-05T18:52:31.667Z,12.20
2018-10-05T18:57:34.736Z,12.10
2018-10-05T19:02:37.900Z,12.00
2018-10-05T19:07:41.020Z,11.90
2018-10-05T19:12:44.167Z,11.80
2018-10-05T19:17:47.252Z,11.70
2018-10-05T19:22:50.487Z,11.60
2018-10-05T19:27:53.593Z,11.60
2018-10-05T19:32:58.570Z,11.50
2018-10-05T19:38:01.660Z,11.50
2018-10-05T19:43:04.713Z,11.40
2018-10-05T19:48:07.835Z,11.40
2018-10-05T19:53:11.001Z,11.30
2018-10-05T19:58:14.004Z,11.30
2018-10-05T20:03:17.064Z,11.30
2018-10-05T20:08:20.272Z,11.30
2018-10-05T20:13:23.330Z,11.30
2018-10-05T20:18:26.495Z,11.30
2018-10-05T20:23:29.523Z,11.20
2018-10-05T20:28:32.580Z,11.20
2018-10-05T20:33:35.690Z,11.10
2018-10-05T20:38:38.706Z,11.10
2018-10-05T20:43:41.725Z,11.10
2018-10-05T20:48:45.010Z,11.10
2018-10-05T20:53:48.103Z,11.10
2018-10-05T20:58:51.199Z,11.10
2018-10-05T21:03:54.297Z,11.00
2018-10-05T21:08:57.381Z,11.00
2018-10-05T21:14:00.419Z,10.90
2018-10-05T21:19:03.471Z,10.90
2018-10-05T21:24:06.628Z,10.90
2018-10-05T21:29:09.722Z,10.80
2018-10-05T21:34:12.745Z,10.80
2018-10-05T21:39:15.785Z,10.70
2018-10-05T21:44:18.836Z,10.60
2018-10-05T21:49:21.885Z,10.60
2018-10-05T21:54:24.927Z,10.50
2018-10-05T21:59:28.005Z,10.50
2018-10-05T22:04:31.082Z,10.50
2018-10-05T22:09:34.148Z,10.40
2018-10-05T22:14:37.273Z,10.40
2018-10-05T22:19:40.436Z,10.30
2018-10-05T22:24:43.452Z,10.30
2018-10-05T22:29:46.589Z,10.20
2018-10-05T22:34:49.659Z,10.20
2018-10-05T22:39:52.755Z,10.20
2018-10-05T22:44:55.819Z,10.10
2018-10-05T22:49:58.881Z,10.10
2018-10-05T22:55:02.192Z,10.10
2018-10-05T23:00:05.806Z,10.00
2018-10-05T23:05:08.898Z,10.00
2018-10-05T23:10:12.094Z,10.00
2018-10-05T23:15:15.227Z,10.00
2018-10-05T23:20:18.358Z,9.90
2018-10-05T23:25:21.402Z,9.90
2018-10-05T23:30:24.460Z,9.80
2018-10-05T23:35:27.610Z,9.80
2018-10-05T23:40:30.728Z,9.80
2018-10-05T23:45:33.820Z,9.80
2018-10-05T23:50:36.953Z,9.70
2018-10-05T23:55:39.993Z,9.70
